| time (UTC) | temp F | wind direction | speed knots | gust knots | rain 1hr in | rain 24hr in | rain mn in | humidity % | barometer mb |
| 20260504202927 | 77 | 230 | 1.7 | 4.3 | 0.00 | 0.00 | 0.00 | 50 | |
| 20260504202424 | 77 | 174 | 3.5 | 5.2 | 0.00 | 0.00 | 0.00 | 48 | |
| 20260504201921 | 77 | 212 | 0.9 | 6.1 | 0.00 | 0.00 | 0.00 | 50 | 1015.8 |
| 20260504201418 | 78 | 209 | 2.6 | 4.3 | 0.00 | 0.00 | 0.00 | 49 | 1015.8 |
| 20260504200915 | 78 | 176 | 2.6 | 4.3 | 0.00 | 0.00 | 0.00 | 49 | 1015.8 |
| 20260504200412 | 77 | 208 | 1.7 | 4.3 | 0.00 | 0.00 | 0.00 | 49 | 1015.8 |
| 20260504195909 | 77 | 258 | 1.7 | 2.6 | 0.00 | 0.00 | 0.00 | 49 | 1015.8 |
| 20260504195404 | 77 | 199 | 2.6 | 5.2 | 0.00 | 0.00 | 0.00 | 47 | 1015.8 |
| 20260504194901 | 77 | 264 | 1.7 | 8.7 | 0.00 | 0.00 | 0.00 | 49 | 1015.8 |
| 20260504194357 | 78 | 165 | 3.5 | 7.0 | 0.00 | 0.00 | 0.00 | 48 | 1015.8 |
| 20260504193853 | 78 | 225 | 4.3 | 7.0 | 0.00 | 0.00 | 0.00 | 45 | 1015.8 |
| 20260504193350 | 78 | 205 | 4.3 | 7.8 | 0.00 | 0.00 | 0.00 | 47 | 1015.8 |
| 20260504192849 | 78 | 242 | 2.6 | 4.3 | 0.00 | 0.00 | 0.00 | 50 | 1015.8 |
| 20260504192347 | 78 | 266 | 2.6 | 6.1 | 0.00 | 0.00 | 0.00 | 48 | 1015.8 |
| 20260504191845 | 77 | 297 | 2.6 | 7.8 | 0.00 | 0.00 | 0.00 | 50 | |
| 20260504191343 | 78 | 174 | 6.1 | 9.6 | 0.00 | 0.00 | 0.00 | 49 | |
| 20260504190838 | 78 | 240 | 0.0 | 6.1 | 0.00 | 0.00 | 0.00 | 50 | |
| 20260504190334 | 77 | 243 | 0.9 | 5.2 | 0.00 | 0.00 | 0.00 | 46 | |
| 20260504185831 | 77 | 246 | 4.3 | 7.8 | 0.00 | 0.00 | 0.00 | 50 | |
| 20260504185328 | 78 | 233 | 4.3 | 8.7 | 0.00 | 0.00 | 0.00 | 49 | |
| 20260504184824 | 79 | 188 | 5.2 | 5.2 | 0.00 | 0.00 | 0.00 | 48 | |
| 20260504184320 | 78 | 235 | 0.9 | 5.2 | 0.00 | 0.00 | 0.00 | 53 | |
| 20260504183815 | 78 | 133 | 4.3 | 7.8 | 0.00 | 0.00 | 0.00 | 47 | |
| 20260504183313 | 78 | 76 | 2.6 | 6.1 | 0.00 | 0.00 | 0.00 | 49 | |
| 20260504182811 | 77 | 231 | 1.7 | 1.7 | 0.00 | 0.00 | 0.00 | 50 | |
| 20260504182308 | 77 | 235 | 3.5 | 5.2 | 0.00 | 0.00 | 0.00 | 46 | |
| 20260504181805 | 77 | 119 | 3.5 | 9.6 | 0.00 | 0.00 | 0.00 | 49 | |
| 20260504181302 | 77 | 227 | 4.3 | 5.2 | 0.00 | 0.00 | 0.00 | 48 | |
| 20260504180801 | 77 | 200 | 6.1 | 7.8 | 0.00 | 0.00 | 0.00 | 47 | 1017.6 |
| 20260504180259 | 77 | 234 | 3.5 | 5.2 | 0.00 | 0.00 | 0.00 | 47 | 1017.6 |
| 20260504175757 | 76 | 219 | 2.6 | 8.7 | 0.00 | 0.00 | 0.00 | 47 | 1017.6 |
| 20260504175253 | 77 | 206 | 1.7 | 4.3 | 0.00 | 0.00 | 0.00 | 49 | 1017.6 |
| 20260504174751 | 76 | 188 | 3.5 | 5.2 | 0.00 | 0.00 | 0.00 | 46 | 1017.6 |
| 20260504174249 | 77 | 224 | 3.5 | 5.2 | 0.00 | 0.00 | 0.00 | 48 | 1017.6 |
| 20260504173745 | 76 | 168 | 2.6 | 4.3 | 0.00 | 0.00 | 0.00 | 48 | 1017.6 |
| 20260504173242 | 76 | 124 | 2.6 | 5.2 | 0.00 | 0.00 | 0.00 | 49 | 1017.6 |
| 20260504172739 | 77 | 221 | 1.7 | 5.2 | 0.00 | 0.00 | 0.00 | 51 | 1017.6 |
| 20260504172236 | 77 | 259 | 1.7 | 4.3 | 0.00 | 0.00 | 0.00 | 49 | 1017.6 |
| 20260504171732 | 76 | 196 | 0.0 | 5.2 | 0.00 | 0.00 | 0.00 | 49 | 1017.6 |
| 20260504171229 | 76 | 242 | 1.7 | 6.1 | 0.00 | 0.00 | 0.00 | 49 | 1017.6 |
| 20260504170726 | 76 | 157 | 0.9 | 7.0 | 0.00 | 0.00 | 0.00 | 49 | 1017.0 |
| 20260504170223 | 76 | 207 | 3.5 | 5.2 | 0.00 | 0.00 | 0.00 | 47 | 1017.0 |
| 20260504160142 | 75 | 224 | 4.3 | 6.1 | 0.00 | 0.00 | 0.00 | 46 | 1017.7 |
| 20260504151109 | 74 | 211 | 0.0 | 6.1 | 0.00 | 0.00 | 0.00 | 60 | 1018.0 |
| 20260504150607 | 73 | 221 | 0.0 | 5.2 | 0.00 | 0.00 | 0.00 | 60 | 1018.0 |
| 20260504150104 | 73 | 226 | 0.9 | 4.3 | 0.00 | 0.00 | 0.00 | 60 | 1018.0 |
| 20260504141032 | 72 | 253 | 0.0 | 0.9 | 0.00 | 0.00 | 0.00 | 70 | 1018.1 |
| 20260504140529 | 71 | 239 | 0.0 | 1.7 | 0.00 | 0.00 | 0.00 | 73 | 1017.8 |
| 20260504130453 | 65 | 248 | 0.0 | 0.0 | 0.00 | 0.00 | 0.00 | 85 | 1018.0 |
| 20260504110340 | 51 | 253 | 0.0 | 0.0 | 0.00 | 0.00 | 0.00 | 99 | 1017.2 |
| 20260504100258 | 51 | 253 | 0.0 | 0.0 | 0.00 | 0.00 | 0.00 | 99 | 1017.2 |
| 20260504081651 | 52 | 251 | 0.0 | 0.0 | 0.00 | 0.00 | 0.00 | 99 | 1017.5 |
| 20260504081147 | 52 | 245 | 0.0 | 0.0 | 0.00 | 0.00 | 0.00 | 99 | 1017.5 |
| 20260504080644 | 53 | 251 | 0.0 | 0.0 | 0.00 | 0.00 | 0.00 | 99 | 1017.6 |
| 20260504080140 | 53 | 251 | 0.0 | 0.0 | 0.00 | 0.00 | 0.00 | 99 | 1017.5 |
| 20260504070108 | 53 | 269 | 0.0 | 0.0 | 0.00 | 0.00 | 0.00 | 99 | 1017.9 |
| 20260504050457 | 55 | 243 | 0.0 | 0.0 | 0.00 | 0.00 | 0.00 | 99 | 1018.7 |
| 20260504045954 | 55 | 240 | 0.0 | 0.0 | 0.00 | 0.00 | 0.00 | 99 | 1018.7 |
| 20260504045449 | 55 | 250 | 0.0 | 0.0 | 0.00 | 0.00 | 0.00 | 99 | 1018.7 |
| 20260504044946 | 55 | 239 | 0.0 | 0.0 | 0.00 | 0.00 | 0.00 | 98 | 1018.8 |
| 20260504044443 | 55 | 245 | 0.0 | 0.0 | 0.00 | 0.00 | 0.00 | 98 | 1018.8 |
| 20260504043941 | 55 | 245 | 0.0 | 0.0 | 0.00 | 0.00 | 0.00 | 98 | 1019.0 |
| 20260504043437 | 56 | 244 | 0.0 | 0.0 | 0.00 | 0.00 | 0.00 | 98 | 1018.9 |
| 20260504042935 | 56 | 249 | 0.0 | 0.0 | 0.00 | 0.00 | 0.00 | 97 | 1018.7 |
| 20260504042431 | 56 | 248 | 0.0 | 0.0 | 0.00 | 0.00 | 0.00 | 97 | 1018.7 |
| 20260504041928 | 56 | 249 | 0.0 | 0.0 | 0.00 | 0.00 | 0.00 | 97 | 1018.7 |
| 20260504041424 | 56 | 262 | 0.0 | 0.0 | 0.00 | 0.00 | 0.00 | 97 | 1018.7 |
| 20260504040920 | 56 | 249 | 0.0 | 0.0 | 0.00 | 0.00 | 0.00 | 97 | 1018.8 |
| 20260504040419 | 56 | 243 | 0.0 | 0.0 | 0.00 | 0.00 | 0.00 | 96 | 1019.0 |
| 20260504035914 | 57 | 246 | 0.0 | 0.0 | 0.00 | 0.00 | 0.00 | 96 | 1019.0 |
| 20260504035412 | 57 | 237 | 0.0 | 0.0 | 0.00 | 0.00 | 0.00 | 96 | 1019.0 |
| 20260504034908 | 57 | 249 | 0.0 | 0.0 | 0.00 | 0.00 | 0.00 | 95 | 1019.0 |
| 20260504034405 | 57 | 256 | 0.0 | 0.0 | 0.00 | 0.00 | 0.00 | 95 | 1019.0 |
| 20260504033902 | 56 | 247 | 0.0 | 0.0 | 0.00 | 0.00 | 0.00 | 94 | 1018.8 |
| 20260504033400 | 57 | 247 | 0.0 | 0.0 | 0.00 | 0.00 | 0.00 | 94 | 1019.1 |
| 20260504032857 | 57 | 245 | 0.0 | 0.0 | 0.00 | 0.00 | 0.00 | 94 | 1019.0 |
| 20260504032354 | 57 | 240 | 0.0 | 0.0 | 0.00 | 0.00 | 0.00 | 94 | 1018.9 |
| 20260504031850 | 57 | 239 | 0.0 | 0.0 | 0.00 | 0.00 | 0.00 | 94 | 1019.0 |
| 20260504031348 | 57 | 244 | 0.0 | 0.0 | 0.00 | 0.00 | 0.00 | 93 | 1018.9 |
| 20260504030844 | 58 | 241 | 0.0 | 0.0 | 0.00 | 0.00 | 0.00 | 93 | 1019.0 |
| 20260504030341 | 58 | 249 | 0.0 | 0.0 | 0.00 | 0.00 | 0.00 | 92 | 1019.0 |
| 20260504025837 | 58 | 251 | 0.0 | 0.0 | 0.00 | 0.00 | 0.00 | 92 | 1019.0 |
| 20260504025335 | 58 | 251 | 0.0 | 0.0 | 0.00 | 0.00 | 0.00 | 91 | 1018.7 |
| 20260504024831 | 58 | 245 | 0.0 | 0.0 | 0.00 | 0.00 | 0.00 | 91 | 1018.7 |
| 20260504024327 | 58 | 239 | 0.0 | 0.0 | 0.00 | 0.00 | 0.00 | 91 | 1018.7 |
| 20260504023824 | 59 | 240 | 0.0 | 0.0 | 0.00 | 0.00 | 0.00 | 90 | 1018.7 |
| 20260504023321 | 59 | 243 | 0.0 | 0.0 | 0.00 | 0.00 | 0.00 | 89 | 1018.7 |
| 20260504022817 | 59 | 247 | 0.0 | 0.0 | 0.00 | 0.00 | 0.00 | 89 | 1018.7 |
| 20260504022314 | 59 | 250 | 0.0 | 0.0 | 0.00 | 0.00 | 0.00 | 88 | 1018.7 |
| 20260504021810 | 59 | 226 | 0.0 | 0.0 | 0.00 | 0.00 | 0.00 | 88 | 1018.7 |
| 20260504021308 | 59 | 240 | 0.0 | 0.0 | 0.00 | 0.00 | 0.00 | 88 | 1018.5 |
| 20260504020805 | 60 | 225 | 0.0 | 0.0 | 0.00 | 0.00 | 0.00 | 89 | 1018.2 |
| 20260504020302 | 60 | 245 | 0.0 | 0.0 | 0.00 | 0.00 | 0.00 | 86 | 1018.1 |
| 20260504015757 | 60 | 245 | 0.0 | 0.0 | 0.00 | 0.00 | 0.00 | 86 | 1018.1 |
| 20260504015254 | 60 | 239 | 0.0 | 0.0 | 0.00 | 0.00 | 0.00 | 85 | 1018.1 |
| 20260504014750 | 61 | 239 | 0.0 | 0.0 | 0.00 | 0.00 | 0.00 | 84 | 1018.1 |
| 20260504014246 | 61 | 239 | 0.0 | 0.0 | 0.00 | 0.00 | 0.00 | 83 | 1018.1 |
| 20260504013744 | 61 | 239 | 0.0 | 0.0 | 0.00 | 0.00 | 0.00 | 83 | |
| 20260504013242 | 62 | 239 | 0.0 | 0.0 | 0.00 | 0.00 | 0.00 | 83 | |
| 20260504012738 | 62 | 238 | 0.0 | 0.0 | 0.00 | 0.00 | 0.00 | 82 | |
| 20260504012236 | 63 | 239 | 0.0 | 0.0 | 0.00 | 0.00 | 0.00 | 80 | |
| 20260504011732 | 63 | 249 | 0.0 | 0.0 | 0.00 | 0.00 | 0.00 | 77 | |
| 20260504011229 | 63 | 251 | 0.0 | 0.0 | 0.00 | 0.00 | 0.00 | 76 | |
| 20260504010726 | 64 | 246 | 0.0 | 0.0 | 0.00 | 0.00 | 0.00 | 75 | |
| 20260504010221 | 64 | 239 | 0.0 | 0.0 | 0.00 | 0.00 | 0.00 | 75 | |
| 20260504005718 | 65 | 236 | 0.0 | 0.0 | 0.00 | 0.00 | 0.00 | 74 | 1017.8 |
| 20260504005215 | 65 | 228 | 0.0 | 0.0 | 0.00 | 0.00 | 0.00 | 75 | 1017.8 |
| 20260504004713 | 66 | 231 | 0.0 | 0.0 | 0.00 | 0.00 | 0.00 | 74 | 1017.8 |
| 20260504004210 | 66 | 235 | 0.0 | 0.0 | 0.00 | 0.00 | 0.00 | 74 | 1017.8 |
| 20260504003707 | 67 | 233 | 0.0 | 0.0 | 0.00 | 0.00 | 0.00 | 72 | 1017.8 |
| 20260504003203 | 67 | 239 | 0.0 | 0.0 | 0.00 | 0.00 | 0.00 | 71 | 1017.8 |
| 20260504002700 | 68 | 239 | 0.0 | 0.0 | 0.00 | 0.00 | 0.00 | 69 | 1017.8 |
| 20260504002157 | 69 | 239 | 0.0 | 0.0 | 0.00 | 0.00 | 0.00 | 68 | 1017.8 |
| 20260504001655 | 69 | 239 | 0.0 | 0.0 | 0.00 | 0.00 | 0.00 | 67 | 1017.8 |
| 20260504001151 | 70 | 233 | 0.0 | 0.0 | 0.00 | 0.00 | 0.00 | 66 | 1017.8 |
| 20260504000648 | 70 | 240 | 0.0 | 0.0 | 0.00 | 0.00 | 0.00 | 64 | 1017.8 |
| 20260504000145 | 71 | 240 | 0.0 | 0.0 | 0.00 | 0.00 | 0.00 | 61 | 1017.8 |
| 20260503235644 | 72 | 226 | 0.9 | 0.9 | 0.00 | 0.00 | 0.00 | 59 | |
| 20260503235140 | 72 | 239 | 0.0 | 0.0 | 0.00 | 0.00 | 0.00 | 57 | |
| 20260503234638 | 72 | 244 | 0.0 | 0.0 | 0.00 | 0.00 | 0.00 | 52 | |
| 20260503234136 | 72 | 256 | 0.0 | 0.0 | 0.00 | 0.00 | 0.00 | 51 | |
| 20260503233632 | 72 | 257 | 0.0 | 0.0 | 0.00 | 0.00 | 0.00 | 52 | |
| 20260503233128 | 73 | 251 | 0.0 | 0.0 | 0.00 | 0.00 | 0.00 | 52 | |
| 20260503232625 | 73 | 255 | 0.0 | 0.0 | 0.00 | 0.00 | 0.00 | 49 | |
| 20260503232123 | 73 | 253 | 0.0 | 0.0 | 0.00 | 0.00 | 0.00 | 46 | |
| 20260503231621 | 74 | 287 | 0.0 | 0.0 | 0.00 | 0.00 | 0.00 | 48 | |
| 20260503231117 | 74 | 281 | 0.0 | 0.0 | 0.00 | 0.00 | 0.00 | 45 | |
| 20260503230614 | 74 | 252 | 0.0 | 0.0 | 0.00 | 0.00 | 0.00 | 48 | |
| 20260503230111 | 74 | 245 | 0.0 | 0.0 | 0.00 | 0.00 | 0.00 | 47 | |
| 20260503225609 | 74 | 262 | 0.0 | 1.7 | 0.00 | 0.00 | 0.00 | 48 | |
| 20260503225108 | 74 | 243 | 0.0 | 0.0 | 0.00 | 0.00 | 0.00 | 44 | |
| 20260503224606 | 74 | 245 | 0.0 | 0.9 | 0.00 | 0.00 | 0.00 | 45 | |
| 20260503224104 | 74 | 250 | 0.0 | 0.0 | 0.00 | 0.00 | 0.00 | 45 | 1018.6 |
| 20260503223602 | 74 | 269 | 0.0 | 0.9 | 0.00 | 0.00 | 0.00 | 43 | 1018.6 |
| 20260503223056 | 74 | 313 | 0.9 | 0.9 | 0.00 | 0.00 | 0.00 | 43 | 1018.6 |
| 20260503222555 | 75 | 281 | 0.0 | 0.0 | 0.00 | 0.00 | 0.00 | 42 | 1018.6 |
| 20260503222052 | 75 | 261 | 0.0 | 1.7 | 0.00 | 0.00 | 0.00 | 43 | 1018.6 |
| 20260503221550 | 75 | 285 | 0.9 | 0.9 | 0.00 | 0.00 | 0.00 | 46 | 1018.6 |
| 20260503221047 | 75 | 260 | 0.0 | 0.0 | 0.00 | 0.00 | 0.00 | 45 | 1018.6 |
| 20260503220543 | 75 | 236 | 0.0 | 0.0 | 0.00 | 0.00 | 0.00 | 44 | 1018.6 |
| 20260503220041 | 75 | 250 | 0.0 | 0.0 | 0.00 | 0.00 | 0.00 | 43 | 1018.6 |
| 20260503215538 | 75 | 257 | 0.0 | 0.0 | 0.00 | 0.00 | 0.00 | 44 | 1018.6 |
| 20260503215035 | 75 | 246 | 0.0 | 0.9 | 0.00 | 0.00 | 0.00 | 45 | 1018.6 |
| 20260503214533 | 75 | 228 | 0.0 | 0.9 | 0.00 | 0.00 | 0.00 | 44 | 1018.6 |
| 20260503214029 | 75 | 254 | 0.0 | 1.7 | 0.00 | 0.00 | 0.00 | 44 | 1018.5 |
| 20260503213528 | 75 | 325 | 0.0 | 0.0 | 0.00 | 0.00 | 0.00 | 42 | |
| 20260503213024 | 75 | 245 | 0.0 | 0.0 | 0.00 | 0.00 | 0.00 | 43 | |
| 20260503212521 | 75 | 305 | 0.0 | 0.0 | 0.00 | 0.00 | 0.00 | 43 | |
| 20260503212019 | 75 | 296 | 0.0 | 1.7 | 0.00 | 0.00 | 0.00 | 43 | 1019.6 |
| 20260503211516 | 75 | 27 | 0.9 | 4.3 | 0.00 | 0.00 | 0.00 | 41 | 1019.6 |
| 20260503211011 | 75 | 274 | 0.9 | 0.9 | 0.00 | 0.00 | 0.00 | 47 | 1019.6 |
| 20260503210508 | 75 | 226 | 0.0 | 2.6 | 0.00 | 0.00 | 0.00 | 42 | 1019.6 |
| 20260503210005 | 75 | 29 | 1.7 | 1.7 | 0.00 | 0.00 | 0.00 | 41 | 1019.6 |
| 20260503205501 | 76 | 283 | 0.9 | 1.7 | 0.00 | 0.00 | 0.00 | 46 | 1019.6 |
| 20260503204956 | 76 | 267 | 0.0 | 0.0 | 0.00 | 0.00 | 0.00 | 43 | 1019.6 |
| 20260503204454 | 75 | 251 | 0.0 | 2.6 | 0.00 | 0.00 | 0.00 | 40 | 1019.6 |
| 20260503203950 | 75 | 112 | 1.7 | 1.7 | 0.00 | 0.00 | 0.00 | 43 | 1019.6 |
| 20260503203449 | 76 | 22 | 0.9 | 0.9 | 0.00 | 0.00 | 0.00 | 44 | 1019.6 |